sensor_id;sensor_type;location;lat;lon;timestamp;P1;durP1;ratioP1;P2;durP2;ratioP2
10904;SDS011;5505;51.450;9.254;2022-11-20T00:00:37;13.97;;;8.60;;
10904;SDS011;5505;51.450;9.254;2022-11-20T00:03:25;13.43;;;9.70;;
10904;SDS011;5505;51.450;9.254;2022-11-20T00:06:13;13.37;;;8.37;;
10904;SDS011;5505;51.450;9.254;2022-11-20T00:09:00;12.50;;;7.77;;
10904;SDS011;5505;51.450;9.254;2022-11-20T00:11:47;15.43;;;8.53;;
10904;SDS011;5505;51.450;9.254;2022-11-20T00:14:34;19.37;;;9.33;;
10904;SDS011;5505;51.450;9.254;2022-11-20T00:17:21;14.20;;;7.60;;
10904;SDS011;5505;51.450;9.254;2022-11-20T00:20:12;9.80;;;6.83;;
10904;SDS011;5505;51.450;9.254;2022-11-20T00:23:05;8.20;;;6.10;;
10904;SDS011;5505;51.450;9.254;2022-11-20T00:25:52;7.47;;;5.77;;
10904;SDS011;5505;51.450;9.254;2022-11-20T00:28:38;9.47;;;6.13;;
10904;SDS011;5505;51.450;9.254;2022-11-20T00:31:26;10.30;;;6.67;;
10904;SDS011;5505;51.450;9.254;2022-11-20T00:34:13;7.83;;;5.83;;
10904;SDS011;5505;51.450;9.254;2022-11-20T00:37:01;9.03;;;6.20;;
10904;SDS011;5505;51.450;9.254;2022-11-20T00:39:49;9.03;;;6.50;;
10904;SDS011;5505;51.450;9.254;2022-11-20T00:42:36;8.20;;;6.50;;
10904;SDS011;5505;51.450;9.254;2022-11-20T00:45:23;11.10;;;6.37;;
10904;SDS011;5505;51.450;9.254;2022-11-20T00:48:10;9.40;;;6.53;;
10904;SDS011;5505;51.450;9.254;2022-11-20T00:50:57;9.40;;;6.60;;
10904;SDS011;5505;51.450;9.254;2022-11-20T00:53:45;8.83;;;6.80;;
10904;SDS011;5505;51.450;9.254;2022-11-20T00:56:32;12.80;;;6.83;;
10904;SDS011;5505;51.450;9.254;2022-11-20T00:59:19;11.43;;;7.53;;
10904;SDS011;5505;51.450;9.254;2022-11-20T01:02:06;10.27;;;7.40;;
10904;SDS011;5505;51.450;9.254;2022-11-20T01:04:53;9.63;;;6.87;;
10904;SDS011;5505;51.450;9.254;2022-11-20T01:07:40;10.30;;;6.93;;
10904;SDS011;5505;51.450;9.254;2022-11-20T01:10:28;9.87;;;7.17;;
10904;SDS011;5505;51.450;9.254;2022-11-20T01:13:15;9.40;;;6.70;;
10904;SDS011;5505;51.450;9.254;2022-11-20T01:16:20;10.13;;;6.60;;
10904;SDS011;5505;51.450;9.254;2022-11-20T01:19:09;8.97;;;6.33;;
10904;SDS011;5505;51.450;9.254;2022-11-20T01:21:57;8.73;;;6.63;;
10904;SDS011;5505;51.450;9.254;2022-11-20T01:24:44;8.73;;;6.17;;
10904;SDS011;5505;51.450;9.254;2022-11-20T01:27:32;11.00;;;6.53;;
10904;SDS011;5505;51.450;9.254;2022-11-20T01:30:19;8.87;;;6.60;;
10904;SDS011;5505;51.450;9.254;2022-11-20T01:33:06;10.90;;;7.53;;
10904;SDS011;5505;51.450;9.254;2022-11-20T01:35:53;10.20;;;7.43;;
10904;SDS011;5505;51.450;9.254;2022-11-20T01:38:50;9.13;;;6.87;;
10904;SDS011;5505;51.450;9.254;2022-11-20T01:41:37;10.53;;;7.13;;
10904;SDS011;5505;51.450;9.254;2022-11-20T01:44:49;10.00;;;6.83;;
10904;SDS011;5505;51.450;9.254;2022-11-20T01:47:38;8.40;;;6.43;;
10904;SDS011;5505;51.450;9.254;2022-11-20T01:50:28;10.30;;;6.73;;
10904;SDS011;5505;51.450;9.254;2022-11-20T01:53:16;10.10;;;6.77;;
10904;SDS011;5505;51.450;9.254;2022-11-20T01:56:08;9.50;;;6.20;;
10904;SDS011;5505;51.450;9.254;2022-11-20T01:58:58;12.90;;;6.63;;
10904;SDS011;5505;51.450;9.254;2022-11-20T02:01:49;13.63;;;7.70;;
10904;SDS011;5505;51.450;9.254;2022-11-20T02:04:35;8.50;;;6.73;;
10904;SDS011;5505;51.450;9.254;2022-11-20T02:07:22;9.27;;;6.57;;
10904;SDS011;5505;51.450;9.254;2022-11-20T02:10:10;9.83;;;6.90;;
10904;SDS011;5505;51.450;9.254;2022-11-20T02:12:57;8.37;;;6.57;;
10904;SDS011;5505;51.450;9.254;2022-11-20T02:16:02;9.60;;;6.17;;
10904;SDS011;5505;51.450;9.254;2022-11-20T02:18:51;6.97;;;6.10;;
10904;SDS011;5505;51.450;9.254;2022-11-20T02:21:40;10.40;;;6.93;;
10904;SDS011;5505;51.450;9.254;2022-11-20T02:24:35;9.90;;;6.67;;
10904;SDS011;5505;51.450;9.254;2022-11-20T02:27:22;9.40;;;6.37;;
10904;SDS011;5505;51.450;9.254;2022-11-20T02:30:09;10.13;;;6.83;;
10904;SDS011;5505;51.450;9.254;2022-11-20T02:32:57;8.67;;;6.23;;
10904;SDS011;5505;51.450;9.254;2022-11-20T02:35:44;8.10;;;6.53;;
10904;SDS011;5505;51.450;9.254;2022-11-20T02:38:32;8.33;;;6.20;;
10904;SDS011;5505;51.450;9.254;2022-11-20T02:41:20;10.83;;;7.10;;
10904;SDS011;5505;51.450;9.254;2022-11-20T02:44:07;9.77;;;6.93;;
10904;SDS011;5505;51.450;9.254;2022-11-20T02:46:56;8.13;;;5.47;;
10904;SDS011;5505;51.450;9.254;2022-11-20T02:49:43;7.83;;;5.67;;
10904;SDS011;5505;51.450;9.254;2022-11-20T02:52:30;7.63;;;5.83;;
10904;SDS011;5505;51.450;9.254;2022-11-20T02:55:17;8.47;;;6.00;;
10904;SDS011;5505;51.450;9.254;2022-11-20T02:58:05;9.10;;;6.27;;
10904;SDS011;5505;51.450;9.254;2022-11-20T03:00:52;9.07;;;6.17;;
10904;SDS011;5505;51.450;9.254;2022-11-20T03:03:39;9.37;;;6.27;;
10904;SDS011;5505;51.450;9.254;2022-11-20T03:06:26;8.07;;;5.53;;
10904;SDS011;5505;51.450;9.254;2022-11-20T03:09:13;9.93;;;6.23;;
10904;SDS011;5505;51.450;9.254;2022-11-20T03:11:59;9.23;;;6.50;;
10904;SDS011;5505;51.450;9.254;2022-11-20T03:14:48;9.73;;;6.27;;
10904;SDS011;5505;51.450;9.254;2022-11-20T03:17:36;8.83;;;6.03;;
10904;SDS011;5505;51.450;9.254;2022-11-20T03:20:23;9.13;;;6.33;;
10904;SDS011;5505;51.450;9.254;2022-11-20T03:23:10;8.17;;;5.70;;
10904;SDS011;5505;51.450;9.254;2022-11-20T03:26:06;10.47;;;6.63;;
10904;SDS011;5505;51.450;9.254;2022-11-20T03:28:55;8.53;;;5.63;;
10904;SDS011;5505;51.450;9.254;2022-11-20T03:31:44;8.00;;;5.77;;
10904;SDS011;5505;51.450;9.254;2022-11-20T03:34:31;8.90;;;5.77;;
10904;SDS011;5505;51.450;9.254;2022-11-20T03:37:18;7.43;;;5.63;;
10904;SDS011;5505;51.450;9.254;2022-11-20T03:40:05;10.40;;;6.37;;
10904;SDS011;5505;51.450;9.254;2022-11-20T03:42:53;7.57;;;5.93;;
10904;SDS011;5505;51.450;9.254;2022-11-20T03:45:40;7.87;;;5.70;;
10904;SDS011;5505;51.450;9.254;2022-11-20T03:48:28;7.83;;;5.67;;
10904;SDS011;5505;51.450;9.254;2022-11-20T03:51:15;7.40;;;5.30;;
10904;SDS011;5505;51.450;9.254;2022-11-20T03:54:04;8.60;;;6.47;;
10904;SDS011;5505;51.450;9.254;2022-11-20T03:56:52;7.93;;;6.20;;
10904;SDS011;5505;51.450;9.254;2022-11-20T03:59:39;7.80;;;6.03;;
10904;SDS011;5505;51.450;9.254;2022-11-20T04:02:26;10.53;;;7.13;;
10904;SDS011;5505;51.450;9.254;2022-11-20T04:05:14;12.70;;;7.50;;
10904;SDS011;5505;51.450;9.254;2022-11-20T04:08:01;8.03;;;6.03;;
10904;SDS011;5505;51.450;9.254;2022-11-20T04:10:49;8.90;;;6.07;;
10904;SDS011;5505;51.450;9.254;2022-11-20T04:13:36;7.20;;;5.60;;
10904;SDS011;5505;51.450;9.254;2022-11-20T04:16:24;9.40;;;6.50;;
10904;SDS011;5505;51.450;9.254;2022-11-20T04:19:12;7.93;;;5.80;;
10904;SDS011;5505;51.450;9.254;2022-11-20T04:22:01;9.77;;;6.23;;
10904;SDS011;5505;51.450;9.254;2022-11-20T04:24:48;12.00;;;8.07;;
10904;SDS011;5505;51.450;9.254;2022-11-20T04:27:35;11.43;;;6.80;;
10904;SDS011;5505;51.450;9.254;2022-11-20T04:30:22;10.07;;;6.93;;
10904;SDS011;5505;51.450;9.254;2022-11-20T04:33:09;9.53;;;6.63;;
10904;SDS011;5505;51.450;9.254;2022-11-20T04:35:59;9.20;;;6.10;;
10904;SDS011;5505;51.450;9.254;2022-11-20T04:38:50;11.40;;;7.07;;
10904;SDS011;5505;51.450;9.254;2022-11-20T04:41:38;9.53;;;6.63;;
10904;SDS011;5505;51.450;9.254;2022-11-20T04:44:25;9.07;;;6.73;;
10904;SDS011;5505;51.450;9.254;2022-11-20T04:47:11;9.50;;;6.57;;
10904;SDS011;5505;51.450;9.254;2022-11-20T04:49:58;8.93;;;6.13;;
10904;SDS011;5505;51.450;9.254;2022-11-20T04:52:45;9.17;;;6.47;;
10904;SDS011;5505;51.450;9.254;2022-11-20T04:55:33;10.23;;;7.17;;
10904;SDS011;5505;51.450;9.254;2022-11-20T04:58:20;8.87;;;6.53;;
10904;SDS011;5505;51.450;9.254;2022-11-20T05:01:09;8.47;;;6.60;;
10904;SDS011;5505;51.450;9.254;2022-11-20T05:03:57;7.37;;;6.20;;
10904;SDS011;5505;51.450;9.254;2022-11-20T05:06:44;9.63;;;6.77;;
10904;SDS011;5505;51.450;9.254;2022-11-20T05:09:31;10.90;;;7.13;;
10904;SDS011;5505;51.450;9.254;2022-11-20T05:12:19;12.90;;;8.23;;
10904;SDS011;5505;51.450;9.254;2022-11-20T05:15:06;26.60;;;12.97;;
10904;SDS011;5505;51.450;9.254;2022-11-20T05:17:53;23.13;;;11.13;;
10904;SDS011;5505;51.450;9.254;2022-11-20T05:20:40;18.83;;;10.43;;
10904;SDS011;5505;51.450;9.254;2022-11-20T05:23:27;19.17;;;10.07;;
10904;SDS011;5505;51.450;9.254;2022-11-20T05:26:18;20.80;;;10.80;;
10904;SDS011;5505;51.450;9.254;2022-11-20T05:29:10;16.57;;;9.87;;
10904;SDS011;5505;51.450;9.254;2022-11-20T05:31:58;17.93;;;10.10;;
10904;SDS011;5505;51.450;9.254;2022-11-20T05:34:45;12.57;;;7.60;;
10904;SDS011;5505;51.450;9.254;2022-11-20T05:37:32;10.73;;;7.27;;
10904;SDS011;5505;51.450;9.254;2022-11-20T05:40:19;8.53;;;6.50;;
10904;SDS011;5505;51.450;9.254;2022-11-20T05:43:06;11.70;;;7.13;;
10904;SDS011;5505;51.450;9.254;2022-11-20T05:45:54;8.80;;;6.53;;
10904;SDS011;5505;51.450;9.254;2022-11-20T05:48:41;10.33;;;6.80;;
10904;SDS011;5505;51.450;9.254;2022-11-20T05:51:29;11.10;;;6.83;;
10904;SDS011;5505;51.450;9.254;2022-11-20T05:54:16;10.57;;;8.20;;
10904;SDS011;5505;51.450;9.254;2022-11-20T05:57:03;10.83;;;7.73;;
10904;SDS011;5505;51.450;9.254;2022-11-20T05:59:50;13.73;;;8.10;;
10904;SDS011;5505;51.450;9.254;2022-11-20T06:02:38;10.27;;;6.77;;
10904;SDS011;5505;51.450;9.254;2022-11-20T06:05:25;13.23;;;8.00;;
10904;SDS011;5505;51.450;9.254;2022-11-20T06:08:12;11.33;;;7.57;;
10904;SDS011;5505;51.450;9.254;2022-11-20T06:11:02;12.23;;;7.70;;
10904;SDS011;5505;51.450;9.254;2022-11-20T06:13:49;12.47;;;7.63;;
10904;SDS011;5505;51.450;9.254;2022-11-20T06:16:36;11.53;;;7.10;;
10904;SDS011;5505;51.450;9.254;2022-11-20T06:19:25;9.60;;;7.40;;
10904;SDS011;5505;51.450;9.254;2022-11-20T06:22:12;10.63;;;8.07;;
10904;SDS011;5505;51.450;9.254;2022-11-20T06:24:58;10.33;;;6.90;;
10904;SDS011;5505;51.450;9.254;2022-11-20T06:27:45;12.43;;;7.67;;
10904;SDS011;5505;51.450;9.254;2022-11-20T06:30:32;11.50;;;7.37;;
10904;SDS011;5505;51.450;9.254;2022-11-20T06:33:19;11.37;;;7.17;;
10904;SDS011;5505;51.450;9.254;2022-11-20T06:36:08;8.63;;;6.33;;
10904;SDS011;5505;51.450;9.254;2022-11-20T06:38:57;7.77;;;6.00;;
10904;SDS011;5505;51.450;9.254;2022-11-20T06:41:46;10.27;;;7.43;;
10904;SDS011;5505;51.450;9.254;2022-11-20T06:44:33;11.67;;;7.50;;
10904;SDS011;5505;51.450;9.254;2022-11-20T06:47:19;10.60;;;7.50;;
10904;SDS011;5505;51.450;9.254;2022-11-20T06:50:08;12.87;;;8.57;;
10904;SDS011;5505;51.450;9.254;2022-11-20T06:52:57;12.00;;;7.90;;
10904;SDS011;5505;51.450;9.254;2022-11-20T06:55:47;11.63;;;8.17;;
10904;SDS011;5505;51.450;9.254;2022-11-20T06:58:35;14.00;;;8.60;;
10904;SDS011;5505;51.450;9.254;2022-11-20T07:01:22;10.80;;;7.57;;
10904;SDS011;5505;51.450;9.254;2022-11-20T07:04:09;10.70;;;7.37;;
10904;SDS011;5505;51.450;9.254;2022-11-20T07:06:56;9.80;;;6.73;;
10904;SDS011;5505;51.450;9.254;2022-11-20T07:09:44;12.40;;;7.23;;
10904;SDS011;5505;51.450;9.254;2022-11-20T07:12:30;8.90;;;6.83;;
10904;SDS011;5505;51.450;9.254;2022-11-20T07:15:18;10.40;;;7.40;;
10904;SDS011;5505;51.450;9.254;2022-11-20T07:18:05;13.57;;;7.77;;
10904;SDS011;5505;51.450;9.254;2022-11-20T07:20:52;12.63;;;8.20;;
10904;SDS011;5505;51.450;9.254;2022-11-20T07:23:39;13.43;;;8.40;;
10904;SDS011;5505;51.450;9.254;2022-11-20T07:26:27;14.33;;;7.83;;
10904;SDS011;5505;51.450;9.254;2022-11-20T07:29:14;10.40;;;7.67;;
10904;SDS011;5505;51.450;9.254;2022-11-20T07:32:01;12.00;;;8.57;;
10904;SDS011;5505;51.450;9.254;2022-11-20T07:34:48;17.90;;;11.50;;
10904;SDS011;5505;51.450;9.254;2022-11-20T07:37:35;16.97;;;11.73;;
10904;SDS011;5505;51.450;9.254;2022-11-20T07:40:22;17.80;;;11.53;;
10904;SDS011;5505;51.450;9.254;2022-11-20T07:43:10;15.13;;;10.30;;
10904;SDS011;5505;51.450;9.254;2022-11-20T07:45:56;20.20;;;12.03;;
10904;SDS011;5505;51.450;9.254;2022-11-20T07:48:44;20.30;;;12.53;;
10904;SDS011;5505;51.450;9.254;2022-11-20T07:51:30;19.90;;;12.57;;
10904;SDS011;5505;51.450;9.254;2022-11-20T07:54:17;18.83;;;12.47;;
10904;SDS011;5505;51.450;9.254;2022-11-20T07:57:04;18.37;;;12.13;;
10904;SDS011;5505;51.450;9.254;2022-11-20T07:59:52;17.43;;;11.93;;
10904;SDS011;5505;51.450;9.254;2022-11-20T08:02:39;17.07;;;11.63;;
10904;SDS011;5505;51.450;9.254;2022-11-20T08:05:27;15.77;;;11.10;;
10904;SDS011;5505;51.450;9.254;2022-11-20T08:08:13;14.63;;;10.47;;
10904;SDS011;5505;51.450;9.254;2022-11-20T08:11:00;13.93;;;11.03;;
10904;SDS011;5505;51.450;9.254;2022-11-20T08:14:01;15.37;;;11.27;;
10904;SDS011;5505;51.450;9.254;2022-11-20T08:17:02;17.10;;;11.03;;
10904;SDS011;5505;51.450;9.254;2022-11-20T08:19:48;16.03;;;9.77;;
10904;SDS011;5505;51.450;9.254;2022-11-20T08:22:35;12.40;;;9.57;;
10904;SDS011;5505;51.450;9.254;2022-11-20T08:25:22;16.20;;;10.27;;
10904;SDS011;5505;51.450;9.254;2022-11-20T08:28:09;14.50;;;10.40;;
10904;SDS011;5505;51.450;9.254;2022-11-20T08:30:58;12.63;;;9.03;;
10904;SDS011;5505;51.450;9.254;2022-11-20T08:33:47;13.30;;;10.00;;
10904;SDS011;5505;51.450;9.254;2022-11-20T08:36:35;10.00;;;8.00;;
10904;SDS011;5505;51.450;9.254;2022-11-20T08:39:22;11.63;;;8.07;;
10904;SDS011;5505;51.450;9.254;2022-11-20T08:42:09;11.70;;;8.40;;
10904;SDS011;5505;51.450;9.254;2022-11-20T08:44:56;13.50;;;9.60;;
10904;SDS011;5505;51.450;9.254;2022-11-20T08:47:43;12.83;;;8.97;;
10904;SDS011;5505;51.450;9.254;2022-11-20T08:50:31;15.17;;;9.47;;
10904;SDS011;5505;51.450;9.254;2022-11-20T08:53:18;13.53;;;9.07;;
10904;SDS011;5505;51.450;9.254;2022-11-20T08:56:05;14.87;;;10.53;;
10904;SDS011;5505;51.450;9.254;2022-11-20T08:58:52;14.53;;;10.50;;
10904;SDS011;5505;51.450;9.254;2022-11-20T09:01:39;13.90;;;9.77;;
10904;SDS011;5505;51.450;9.254;2022-11-20T09:04:26;15.87;;;10.30;;
10904;SDS011;5505;51.450;9.254;2022-11-20T09:07:17;15.10;;;10.43;;
10904;SDS011;5505;51.450;9.254;2022-11-20T09:10:04;15.63;;;10.87;;
10904;SDS011;5505;51.450;9.254;2022-11-20T09:12:53;19.60;;;11.67;;
10904;SDS011;5505;51.450;9.254;2022-11-20T09:15:41;22.90;;;11.33;;
10904;SDS011;5505;51.450;9.254;2022-11-20T09:18:28;14.50;;;7.53;;
10904;SDS011;5505;51.450;9.254;2022-11-20T09:21:16;15.20;;;7.83;;
10904;SDS011;5505;51.450;9.254;2022-11-20T09:24:05;11.17;;;7.00;;
10904;SDS011;5505;51.450;9.254;2022-11-20T09:26:52;10.07;;;6.47;;
10904;SDS011;5505;51.450;9.254;2022-11-20T09:29:39;6.97;;;5.50;;
10904;SDS011;5505;51.450;9.254;2022-11-20T09:32:26;14.13;;;7.47;;
10904;SDS011;5505;51.450;9.254;2022-11-20T09:35:13;20.93;;;12.07;;
10904;SDS011;5505;51.450;9.254;2022-11-20T09:38:04;30.30;;;17.27;;
10904;SDS011;5505;51.450;9.254;2022-11-20T09:40:55;15.33;;;7.97;;
10904;SDS011;5505;51.450;9.254;2022-11-20T09:43:46;8.77;;;5.53;;
10904;SDS011;5505;51.450;9.254;2022-11-20T09:46:43;12.80;;;8.40;;
10904;SDS011;5505;51.450;9.254;2022-11-20T09:49:37;11.70;;;6.67;;
10904;SDS011;5505;51.450;9.254;2022-11-20T09:52:37;8.27;;;6.13;;
10904;SDS011;5505;51.450;9.254;2022-11-20T09:55:32;8.13;;;5.97;;
10904;SDS011;5505;51.450;9.254;2022-11-20T09:58:27;14.60;;;7.77;;
10904;SDS011;5505;51.450;9.254;2022-11-20T10:01:18;10.90;;;6.67;;
10904;SDS011;5505;51.450;9.254;2022-11-20T10:04:08;8.57;;;5.97;;
10904;SDS011;5505;51.450;9.254;2022-11-20T10:07:00;11.13;;;7.03;;
10904;SDS011;5505;51.450;9.254;2022-11-20T10:09:53;9.07;;;5.33;;
10904;SDS011;5505;51.450;9.254;2022-11-20T10:12:46;9.87;;;6.60;;
10904;SDS011;5505;51.450;9.254;2022-11-20T10:15:46;11.80;;;6.67;;
10904;SDS011;5505;51.450;9.254;2022-11-20T10:18:47;8.70;;;6.10;;
10904;SDS011;5505;51.450;9.254;2022-11-20T10:21:47;10.87;;;6.60;;
10904;SDS011;5505;51.450;9.254;2022-11-20T10:24:44;9.93;;;6.63;;
10904;SDS011;5505;51.450;9.254;2022-11-20T10:27:49;7.77;;;6.27;;
10904;SDS011;5505;51.450;9.254;2022-11-20T10:30:59;8.77;;;6.03;;
10904;SDS011;5505;51.450;9.254;2022-11-20T10:33:48;15.33;;;11.30;;
10904;SDS011;5505;51.450;9.254;2022-11-20T10:36:40;9.60;;;6.60;;
10904;SDS011;5505;51.450;9.254;2022-11-20T10:39:32;8.93;;;6.10;;
10904;SDS011;5505;51.450;9.254;2022-11-20T10:42:24;10.33;;;6.33;;
10904;SDS011;5505;51.450;9.254;2022-11-20T10:45:18;9.53;;;6.00;;
10904;SDS011;5505;51.450;9.254;2022-11-20T10:48:20;9.33;;;6.30;;
10904;SDS011;5505;51.450;9.254;2022-11-20T10:51:12;10.50;;;6.40;;
10904;SDS011;5505;51.450;9.254;2022-11-20T10:54:09;10.20;;;6.83;;
10904;SDS011;5505;51.450;9.254;2022-11-20T10:57:04;10.10;;;6.30;;
10904;SDS011;5505;51.450;9.254;2022-11-20T11:00:02;8.37;;;5.80;;
10904;SDS011;5505;51.450;9.254;2022-11-20T11:02:51;9.47;;;5.87;;
10904;SDS011;5505;51.450;9.254;2022-11-20T11:05:42;9.57;;;6.20;;
10904;SDS011;5505;51.450;9.254;2022-11-20T11:08:37;9.77;;;6.00;;
10904;SDS011;5505;51.450;9.254;2022-11-20T11:11:26;8.67;;;6.17;;
10904;SDS011;5505;51.450;9.254;2022-11-20T11:14:15;10.40;;;6.70;;
10904;SDS011;5505;51.450;9.254;2022-11-20T11:17:02;9.87;;;5.40;;
10904;SDS011;5505;51.450;9.254;2022-11-20T11:20:14;7.43;;;5.50;;
10904;SDS011;5505;51.450;9.254;2022-11-20T11:23:03;8.57;;;6.47;;
10904;SDS011;5505;51.450;9.254;2022-11-20T11:25:55;10.23;;;7.27;;
10904;SDS011;5505;51.450;9.254;2022-11-20T11:28:52;11.17;;;7.80;;
10904;SDS011;5505;51.450;9.254;2022-11-20T11:31:39;8.93;;;6.63;;
10904;SDS011;5505;51.450;9.254;2022-11-20T11:34:26;10.20;;;7.03;;
10904;SDS011;5505;51.450;9.254;2022-11-20T11:37:15;11.70;;;7.30;;
10904;SDS011;5505;51.450;9.254;2022-11-20T11:40:09;9.63;;;7.13;;
10904;SDS011;5505;51.450;9.254;2022-11-20T11:42:58;10.53;;;6.93;;
10904;SDS011;5505;51.450;9.254;2022-11-20T11:45:51;10.70;;;7.40;;
10904;SDS011;5505;51.450;9.254;2022-11-20T11:48:38;12.03;;;7.93;;
10904;SDS011;5505;51.450;9.254;2022-11-20T11:51:26;9.10;;;6.63;;
10904;SDS011;5505;51.450;9.254;2022-11-20T11:54:19;8.30;;;6.67;;
10904;SDS011;5505;51.450;9.254;2022-11-20T11:57:12;10.77;;;7.20;;
10904;SDS011;5505;51.450;9.254;2022-11-20T12:00:05;9.13;;;6.70;;
10904;SDS011;5505;51.450;9.254;2022-11-20T12:02:57;9.37;;;6.43;;
10904;SDS011;5505;51.450;9.254;2022-11-20T12:05:55;8.17;;;6.13;;
10904;SDS011;5505;51.450;9.254;2022-11-20T12:08:46;9.37;;;6.63;;
10904;SDS011;5505;51.450;9.254;2022-11-20T12:11:40;9.93;;;7.10;;
10904;SDS011;5505;51.450;9.254;2022-11-20T12:14:33;9.27;;;6.47;;
10904;SDS011;5505;51.450;9.254;2022-11-20T12:17:21;6.53;;;5.30;;
10904;SDS011;5505;51.450;9.254;2022-11-20T12:20:12;8.03;;;6.37;;
10904;SDS011;5505;51.450;9.254;2022-11-20T12:23:01;8.80;;;6.50;;
10904;SDS011;5505;51.450;9.254;2022-11-20T12:25:56;7.63;;;5.73;;
10904;SDS011;5505;51.450;9.254;2022-11-20T12:28:49;8.30;;;6.20;;
10904;SDS011;5505;51.450;9.254;2022-11-20T12:31:51;9.83;;;6.53;;
10904;SDS011;5505;51.450;9.254;2022-11-20T12:34:55;11.77;;;7.10;;
10904;SDS011;5505;51.450;9.254;2022-11-20T12:37:48;8.93;;;6.80;;
10904;SDS011;5505;51.450;9.254;2022-11-20T12:40:44;7.60;;;6.20;;
10904;SDS011;5505;51.450;9.254;2022-11-20T12:43:39;8.50;;;6.20;;
10904;SDS011;5505;51.450;9.254;2022-11-20T12:47:05;7.93;;;6.10;;
10904;SDS011;5505;51.450;9.254;2022-11-20T12:50:04;10.40;;;6.70;;
10904;SDS011;5505;51.450;9.254;2022-11-20T12:53:01;8.00;;;5.93;;
10904;SDS011;5505;51.450;9.254;2022-11-20T12:55:53;7.50;;;6.30;;
10904;SDS011;5505;51.450;9.254;2022-11-20T12:58:50;9.00;;;6.00;;
10904;SDS011;5505;51.450;9.254;2022-11-20T13:01:52;9.00;;;6.80;;
10904;SDS011;5505;51.450;9.254;2022-11-20T13:04:48;9.87;;;6.53;;
10904;SDS011;5505;51.450;9.254;2022-11-20T13:07:46;8.83;;;6.50;;
10904;SDS011;5505;51.450;9.254;2022-11-20T13:10:35;11.03;;;7.43;;
10904;SDS011;5505;51.450;9.254;2022-11-20T13:13:26;10.10;;;8.00;;
10904;SDS011;5505;51.450;9.254;2022-11-20T13:16:19;11.73;;;8.30;;
10904;SDS011;5505;51.450;9.254;2022-11-20T13:19:19;11.70;;;8.30;;
10904;SDS011;5505;51.450;9.254;2022-11-20T13:22:07;11.17;;;8.27;;
10904;SDS011;5505;51.450;9.254;2022-11-20T13:24:54;10.60;;;8.20;;
10904;SDS011;5505;51.450;9.254;2022-11-20T13:27:46;9.57;;;7.67;;
10904;SDS011;5505;51.450;9.254;2022-11-20T13:30:34;10.37;;;7.47;;
10904;SDS011;5505;51.450;9.254;2022-11-20T13:33:23;8.97;;;7.47;;
10904;SDS011;5505;51.450;9.254;2022-11-20T13:36:22;13.53;;;7.73;;
10904;SDS011;5505;51.450;9.254;2022-11-20T13:39:10;11.97;;;8.77;;
10904;SDS011;5505;51.450;9.254;2022-11-20T13:41:58;13.57;;;9.40;;
10904;SDS011;5505;51.450;9.254;2022-11-20T13:44:47;14.73;;;10.47;;
10904;SDS011;5505;51.450;9.254;2022-11-20T13:47:37;15.67;;;10.23;;
10904;SDS011;5505;51.450;9.254;2022-11-20T13:50:40;13.43;;;9.07;;
10904;SDS011;5505;51.450;9.254;2022-11-20T13:53:45;13.00;;;9.57;;
10904;SDS011;5505;51.450;9.254;2022-11-20T13:56:47;13.17;;;10.00;;
10904;SDS011;5505;51.450;9.254;2022-11-20T13:59:44;12.60;;;9.60;;
10904;SDS011;5505;51.450;9.254;2022-11-20T14:02:39;14.80;;;10.43;;
10904;SDS011;5505;51.450;9.254;2022-11-20T14:05:27;14.00;;;10.60;;
10904;SDS011;5505;51.450;9.254;2022-11-20T14:08:23;13.37;;;10.73;;
10904;SDS011;5505;51.450;9.254;2022-11-20T14:11:16;13.67;;;10.27;;
10904;SDS011;5505;51.450;9.254;2022-11-20T14:14:10;14.23;;;10.80;;
10904;SDS011;5505;51.450;9.254;2022-11-20T14:17:05;13.07;;;9.70;;
10904;SDS011;5505;51.450;9.254;2022-11-20T14:19:52;13.90;;;10.80;;
10904;SDS011;5505;51.450;9.254;2022-11-20T14:22:47;13.17;;;10.03;;
10904;SDS011;5505;51.450;9.254;2022-11-20T14:25:35;14.07;;;10.30;;
10904;SDS011;5505;51.450;9.254;2022-11-20T14:28:27;14.67;;;10.40;;
10904;SDS011;5505;51.450;9.254;2022-11-20T14:31:16;16.67;;;11.50;;
10904;SDS011;5505;51.450;9.254;2022-11-20T14:34:10;17.43;;;11.70;;
10904;SDS011;5505;51.450;9.254;2022-11-20T14:37:02;16.90;;;11.13;;
10904;SDS011;5505;51.450;9.254;2022-11-20T14:39:52;22.20;;;13.50;;
10904;SDS011;5505;51.450;9.254;2022-11-20T14:42:43;18.10;;;12.53;;
10904;SDS011;5505;51.450;9.254;2022-11-20T14:45:31;15.63;;;11.20;;
10904;SDS011;5505;51.450;9.254;2022-11-20T14:48:18;18.60;;;13.83;;
10904;SDS011;5505;51.450;9.254;2022-11-20T14:51:08;19.20;;;13.73;;
10904;SDS011;5505;51.450;9.254;2022-11-20T14:53:55;18.33;;;12.93;;
10904;SDS011;5505;51.450;9.254;2022-11-20T14:56:42;18.70;;;13.53;;
10904;SDS011;5505;51.450;9.254;2022-11-20T14:59:40;20.40;;;14.23;;
10904;SDS011;5505;51.450;9.254;2022-11-20T15:02:29;23.27;;;14.97;;
10904;SDS011;5505;51.450;9.254;2022-11-20T15:05:17;22.63;;;15.53;;
10904;SDS011;5505;51.450;9.254;2022-11-20T15:08:06;24.37;;;15.93;;
10904;SDS011;5505;51.450;9.254;2022-11-20T15:10:55;21.10;;;14.10;;
10904;SDS011;5505;51.450;9.254;2022-11-20T15:13:43;24.20;;;14.60;;
10904;SDS011;5505;51.450;9.254;2022-11-20T15:16:30;21.97;;;15.60;;
10904;SDS011;5505;51.450;9.254;2022-11-20T15:19:20;24.63;;;15.40;;
10904;SDS011;5505;51.450;9.254;2022-11-20T15:22:08;21.67;;;15.17;;
10904;SDS011;5505;51.450;9.254;2022-11-20T15:24:59;22.53;;;14.70;;
10904;SDS011;5505;51.450;9.254;2022-11-20T15:27:45;25.73;;;16.33;;
10904;SDS011;5505;51.450;9.254;2022-11-20T15:30:49;23.47;;;14.17;;
10904;SDS011;5505;51.450;9.254;2022-11-20T15:34:13;23.27;;;14.43;;
10904;SDS011;5505;51.450;9.254;2022-11-20T15:37:02;19.90;;;13.73;;
10904;SDS011;5505;51.450;9.254;2022-11-20T15:39:49;19.23;;;13.43;;
10904;SDS011;5505;51.450;9.254;2022-11-20T15:42:50;20.63;;;13.33;;
10904;SDS011;5505;51.450;9.254;2022-11-20T15:46:09;21.13;;;12.43;;
10904;SDS011;5505;51.450;9.254;2022-11-20T15:49:19;18.90;;;12.60;;
10904;SDS011;5505;51.450;9.254;2022-11-20T15:52:25;19.17;;;12.63;;
10904;SDS011;5505;51.450;9.254;2022-11-20T15:55:38;18.07;;;12.30;;
10904;SDS011;5505;51.450;9.254;2022-11-20T15:58:44;20.90;;;13.90;;
10904;SDS011;5505;51.450;9.254;2022-11-20T16:01:44;19.87;;;13.43;;
10904;SDS011;5505;51.450;9.254;2022-11-20T16:04:52;21.07;;;14.30;;
10904;SDS011;5505;51.450;9.254;2022-11-20T16:07:55;21.43;;;14.37;;
10904;SDS011;5505;51.450;9.254;2022-11-20T16:10:52;22.40;;;14.63;;
10904;SDS011;5505;51.450;9.254;2022-11-20T16:13:42;21.07;;;14.50;;
10904;SDS011;5505;51.450;9.254;2022-11-20T16:16:53;22.20;;;14.17;;
10904;SDS011;5505;51.450;9.254;2022-11-20T16:19:41;21.70;;;14.40;;
10904;SDS011;5505;51.450;9.254;2022-11-20T16:22:41;22.30;;;14.30;;
10904;SDS011;5505;51.450;9.254;2022-11-20T16:25:41;22.53;;;15.30;;
10904;SDS011;5505;51.450;9.254;2022-11-20T16:28:37;21.77;;;13.60;;
10904;SDS011;5505;51.450;9.254;2022-11-20T16:31:41;22.47;;;14.43;;
10904;SDS011;5505;51.450;9.254;2022-11-20T16:34:34;20.07;;;13.27;;
10904;SDS011;5505;51.450;9.254;2022-11-20T16:37:36;20.47;;;12.60;;
10904;SDS011;5505;51.450;9.254;2022-11-20T16:40:36;20.97;;;13.93;;
10904;SDS011;5505;51.450;9.254;2022-11-20T16:43:36;23.30;;;13.50;;
10904;SDS011;5505;51.450;9.254;2022-11-20T16:46:23;17.83;;;12.13;;
10904;SDS011;5505;51.450;9.254;2022-11-20T16:49:18;22.13;;;14.90;;
10904;SDS011;5505;51.450;9.254;2022-11-20T16:52:05;23.17;;;13.87;;
10904;SDS011;5505;51.450;9.254;2022-11-20T16:54:51;21.53;;;13.93;;
10904;SDS011;5505;51.450;9.254;2022-11-20T16:57:40;22.23;;;14.90;;
10904;SDS011;5505;51.450;9.254;2022-11-20T17:00:27;21.63;;;14.47;;
10904;SDS011;5505;51.450;9.254;2022-11-20T17:03:14;21.20;;;15.10;;
10904;SDS011;5505;51.450;9.254;2022-11-20T17:06:01;23.97;;;15.43;;
10904;SDS011;5505;51.450;9.254;2022-11-20T17:08:57;22.80;;;15.10;;